sensor_id;sensor_type;location;lat;lon;timestamp;pressure;altitude;pressure_sealevel;temperature
33267;BMP180;19638;49.080;11.896;2022-11-15T00:06:33;96263.00;;;3.80
33267;BMP180;19638;49.080;11.896;2022-11-15T00:11:08;96251.00;;;3.90
33267;BMP180;19638;49.080;11.896;2022-11-15T00:15:12;96262.00;;;3.90
33267;BMP180;19638;49.080;11.896;2022-11-15T00:19:49;96257.00;;;3.90
33267;BMP180;19638;49.080;11.896;2022-11-15T00:23:54;96267.00;;;3.90
33267;BMP180;19638;49.080;11.896;2022-11-15T00:28:27;96261.00;;;3.80
33267;BMP180;19638;49.080;11.896;2022-11-15T00:32:31;96252.00;;;3.70
33267;BMP180;19638;49.080;11.896;2022-11-15T00:37:05;96258.00;;;3.70
33267;BMP180;19638;49.080;11.896;2022-11-15T00:41:10;96248.00;;;3.60
33267;BMP180;19638;49.080;11.896;2022-11-15T00:49:46;96239.00;;;3.50
33267;BMP180;19638;49.080;11.896;2022-11-15T00:53:49;96230.00;;;3.40
33267;BMP180;19638;49.080;11.896;2022-11-15T00:58:28;96232.00;;;3.30
33267;BMP180;19638;49.080;11.896;2022-11-15T01:02:31;96223.00;;;3.30
33267;BMP180;19638;49.080;11.896;2022-11-15T01:06:34;96223.00;;;3.20
33267;BMP180;19638;49.080;11.896;2022-11-15T01:11:11;96215.00;;;3.20
33267;BMP180;19638;49.080;11.896;2022-11-15T01:15:16;96216.00;;;3.10
33267;BMP180;19638;49.080;11.896;2022-11-15T01:19:19;96207.00;;;3.10
33267;BMP180;19638;49.080;11.896;2022-11-15T01:23:22;96205.00;;;3.10
33267;BMP180;19638;49.080;11.896;2022-11-15T01:27:25;96201.00;;;3.00
33267;BMP180;19638;49.080;11.896;2022-11-15T01:32:03;96192.00;;;3.00
33267;BMP180;19638;49.080;11.896;2022-11-15T01:36:09;96190.00;;;3.00
33267;BMP180;19638;49.080;11.896;2022-11-15T01:40:13;96194.00;;;3.00
33267;BMP180;19638;49.080;11.896;2022-11-15T01:48:57;96175.00;;;3.00
33267;BMP180;19638;49.080;11.896;2022-11-15T01:53:01;96178.00;;;3.10
33267;BMP180;19638;49.080;11.896;2022-11-15T01:57:07;96166.00;;;3.10
33267;BMP180;19638;49.080;11.896;2022-11-15T02:01:11;96174.00;;;3.30
33267;BMP180;19638;49.080;11.896;2022-11-15T02:05:16;96171.00;;;3.20
33267;BMP180;19638;49.080;11.896;2022-11-15T02:09:19;96178.00;;;3.20
33267;BMP180;19638;49.080;11.896;2022-11-15T02:13:23;96171.00;;;3.10
33267;BMP180;19638;49.080;11.896;2022-11-15T02:17:59;96155.00;;;2.90
33267;BMP180;19638;49.080;11.896;2022-11-15T02:22:14;96157.00;;;2.80
33267;BMP180;19638;49.080;11.896;2022-11-15T02:31:26;96141.00;;;2.90
33267;BMP180;19638;49.080;11.896;2022-11-15T02:35:38;96134.00;;;2.90
33267;BMP180;19638;49.080;11.896;2022-11-15T02:40:06;96132.00;;;2.90
33267;BMP180;19638;49.080;11.896;2022-11-15T02:44:16;96121.00;;;2.90
33267;BMP180;19638;49.080;11.896;2022-11-15T02:48:49;96113.00;;;2.90
33267;BMP180;19638;49.080;11.896;2022-11-15T02:52:53;96114.00;;;2.90
33267;BMP180;19638;49.080;11.896;2022-11-15T02:57:00;96102.00;;;2.80
33267;BMP180;19638;49.080;11.896;2022-11-15T03:01:09;96107.00;;;2.70
33267;BMP180;19638;49.080;11.896;2022-11-15T03:05:20;96114.00;;;2.70
33267;BMP180;19638;49.080;11.896;2022-11-15T03:09:51;96108.00;;;2.60
33267;BMP180;19638;49.080;11.896;2022-11-15T03:13:58;96101.00;;;2.50
33267;BMP180;19638;49.080;11.896;2022-11-15T03:18:05;96101.00;;;2.50
33267;BMP180;19638;49.080;11.896;2022-11-15T03:22:40;96097.00;;;2.50
33267;BMP180;19638;49.080;11.896;2022-11-15T03:27:20;96102.00;;;2.40
33267;BMP180;19638;49.080;11.896;2022-11-15T03:31:55;96100.00;;;2.50
33267;BMP180;19638;49.080;11.896;2022-11-15T03:36:00;96089.00;;;2.60
33267;BMP180;19638;49.080;11.896;2022-11-15T03:40:05;96100.00;;;2.80
33267;BMP180;19638;49.080;11.896;2022-11-15T03:44:13;96096.00;;;3.10
33267;BMP180;19638;49.080;11.896;2022-11-15T03:48:43;96090.00;;;3.10
33267;BMP180;19638;49.080;11.896;2022-11-15T03:52:49;96088.00;;;3.10
33267;BMP180;19638;49.080;11.896;2022-11-15T03:57:25;96094.00;;;3.20
33267;BMP180;19638;49.080;11.896;2022-11-15T04:01:28;96077.00;;;3.20
33267;BMP180;19638;49.080;11.896;2022-11-15T04:05:31;96079.00;;;3.20
33267;BMP180;19638;49.080;11.896;2022-11-15T04:09:34;96072.00;;;3.20
33267;BMP180;19638;49.080;11.896;2022-11-15T04:14:13;96078.00;;;3.20
33267;BMP180;19638;49.080;11.896;2022-11-15T04:18:16;96086.00;;;3.30
33267;BMP180;19638;49.080;11.896;2022-11-15T04:22:19;96087.00;;;3.20
33267;BMP180;19638;49.080;11.896;2022-11-15T04:26:55;96086.00;;;3.00
33267;BMP180;19638;49.080;11.896;2022-11-15T04:36:05;96082.00;;;2.60
33267;BMP180;19638;49.080;11.896;2022-11-15T04:40:26;96074.00;;;2.40
33267;BMP180;19638;49.080;11.896;2022-11-15T04:44:29;96072.00;;;2.30
33267;BMP180;19638;49.080;11.896;2022-11-15T04:48:32;96071.00;;;2.30
33267;BMP180;19638;49.080;11.896;2022-11-15T04:58:09;96054.00;;;2.40
33267;BMP180;19638;49.080;11.896;2022-11-15T05:02:12;96057.00;;;2.40
33267;BMP180;19638;49.080;11.896;2022-11-15T05:06:15;96049.00;;;2.50
33267;BMP180;19638;49.080;11.896;2022-11-15T05:10:52;96052.00;;;2.60
33267;BMP180;19638;49.080;11.896;2022-11-15T05:15:30;96038.00;;;2.70
33267;BMP180;19638;49.080;11.896;2022-11-15T05:19:33;96039.00;;;2.70
33267;BMP180;19638;49.080;11.896;2022-11-15T05:23:36;96033.00;;;2.70
33267;BMP180;19638;49.080;11.896;2022-11-15T05:27:40;96036.00;;;2.60
33267;BMP180;19638;49.080;11.896;2022-11-15T05:32:18;96033.00;;;2.50
33267;BMP180;19638;49.080;11.896;2022-11-15T05:36:27;96024.00;;;2.50
33267;BMP180;19638;49.080;11.896;2022-11-15T05:40:56;96029.00;;;2.50
33267;BMP180;19638;49.080;11.896;2022-11-15T05:45:00;96034.00;;;2.60
33267;BMP180;19638;49.080;11.896;2022-11-15T05:49:31;96024.00;;;2.70
33267;BMP180;19638;49.080;11.896;2022-11-15T05:54:04;96021.00;;;2.50
33267;BMP180;19638;49.080;11.896;2022-11-15T05:58:07;96019.00;;;2.40
33267;BMP180;19638;49.080;11.896;2022-11-15T06:02:44;96002.00;;;2.40
33267;BMP180;19638;49.080;11.896;2022-11-15T06:06:49;95998.00;;;2.60
33267;BMP180;19638;49.080;11.896;2022-11-15T06:11:23;96004.00;;;3.20
33267;BMP180;19638;49.080;11.896;2022-11-15T06:15:26;96006.00;;;3.50
33267;BMP180;19638;49.080;11.896;2022-11-15T06:19:29;96005.00;;;3.30
33267;BMP180;19638;49.080;11.896;2022-11-15T06:23:36;96011.00;;;3.10
33267;BMP180;19638;49.080;11.896;2022-11-15T06:28:12;96003.00;;;2.90
33267;BMP180;19638;49.080;11.896;2022-11-15T06:32:16;96017.00;;;2.80
33267;BMP180;19638;49.080;11.896;2022-11-15T06:36:49;96022.00;;;2.80
33267;BMP180;19638;49.080;11.896;2022-11-15T06:40:54;96033.00;;;2.80
33267;BMP180;19638;49.080;11.896;2022-11-15T06:44:57;96037.00;;;2.80
33267;BMP180;19638;49.080;11.896;2022-11-15T06:49:00;96030.00;;;2.80
33267;BMP180;19638;49.080;11.896;2022-11-15T06:53:10;96030.00;;;2.80
33267;BMP180;19638;49.080;11.896;2022-11-15T06:57:14;96026.00;;;2.80
33267;BMP180;19638;49.080;11.896;2022-11-15T07:01:48;96020.00;;;2.70
33267;BMP180;19638;49.080;11.896;2022-11-15T07:10:28;96032.00;;;3.10
33267;BMP180;19638;49.080;11.896;2022-11-15T07:19:05;96028.00;;;3.70
33267;BMP180;19638;49.080;11.896;2022-11-15T07:23:08;96024.00;;;3.80
33267;BMP180;19638;49.080;11.896;2022-11-15T07:31:49;96029.00;;;4.30
33267;BMP180;19638;49.080;11.896;2022-11-15T07:36:24;96016.00;;;4.40
33267;BMP180;19638;49.080;11.896;2022-11-15T07:40:29;96011.00;;;4.40
33267;BMP180;19638;49.080;11.896;2022-11-15T07:44:32;96014.00;;;4.60
33267;BMP180;19638;49.080;11.896;2022-11-15T07:49:07;96007.00;;;4.80
33267;BMP180;19638;49.080;11.896;2022-11-15T07:53:11;95996.00;;;4.90
33267;BMP180;19638;49.080;11.896;2022-11-15T07:57:14;96000.00;;;5.10
33267;BMP180;19638;49.080;11.896;2022-11-15T08:05:54;96008.00;;;5.30
33267;BMP180;19638;49.080;11.896;2022-11-15T08:09:59;96006.00;;;5.30
33267;BMP180;19638;49.080;11.896;2022-11-15T08:14:36;96013.00;;;5.20
33267;BMP180;19638;49.080;11.896;2022-11-15T08:18:40;96021.00;;;5.20
33267;BMP180;19638;49.080;11.896;2022-11-15T08:22:43;96012.00;;;5.20
33267;BMP180;19638;49.080;11.896;2022-11-15T08:26:47;96010.00;;;5.20
33267;BMP180;19638;49.080;11.896;2022-11-15T08:30:50;96019.00;;;5.30
33267;BMP180;19638;49.080;11.896;2022-11-15T08:34:53;96009.00;;;5.40
33267;BMP180;19638;49.080;11.896;2022-11-15T08:39:30;95996.00;;;5.60
33267;BMP180;19638;49.080;11.896;2022-11-15T08:43:35;96002.00;;;5.80
33267;BMP180;19638;49.080;11.896;2022-11-15T08:47:38;95990.00;;;6.00
33267;BMP180;19638;49.080;11.896;2022-11-15T08:51:41;95977.00;;;6.20
33267;BMP180;19638;49.080;11.896;2022-11-15T08:55:44;95978.00;;;6.40
33267;BMP180;19638;49.080;11.896;2022-11-15T08:59:49;95981.00;;;6.70
33267;BMP180;19638;49.080;11.896;2022-11-15T09:08:29;95970.00;;;7.30
33267;BMP180;19638;49.080;11.896;2022-11-15T09:12:48;95974.00;;;7.60
33267;BMP180;19638;49.080;11.896;2022-11-15T09:16:53;95970.00;;;8.00
33267;BMP180;19638;49.080;11.896;2022-11-15T09:20:56;95964.00;;;8.20
33267;BMP180;19638;49.080;11.896;2022-11-15T09:25:00;95966.00;;;8.40
33267;BMP180;19638;49.080;11.896;2022-11-15T09:29:06;95972.00;;;8.60
33267;BMP180;19638;49.080;11.896;2022-11-15T09:33:11;95978.00;;;8.80
33267;BMP180;19638;49.080;11.896;2022-11-15T09:37:15;95985.00;;;9.00
33267;BMP180;19638;49.080;11.896;2022-11-15T09:41:30;95974.00;;;9.10
33267;BMP180;19638;49.080;11.896;2022-11-15T09:46:05;95959.00;;;9.10
33267;BMP180;19638;49.080;11.896;2022-11-15T09:50:15;95952.00;;;9.30
33267;BMP180;19638;49.080;11.896;2022-11-15T09:54:26;95946.00;;;9.40
33267;BMP180;19638;49.080;11.896;2022-11-15T09:58:56;95944.00;;;9.50
33267;BMP180;19638;49.080;11.896;2022-11-15T10:03:13;95938.00;;;9.60
33267;BMP180;19638;49.080;11.896;2022-11-15T10:07:21;95922.00;;;9.70
33267;BMP180;19638;49.080;11.896;2022-11-15T10:11:30;95917.00;;;9.80
33267;BMP180;19638;49.080;11.896;2022-11-15T10:15:42;95902.00;;;10.00
33267;BMP180;19638;49.080;11.896;2022-11-15T10:19:55;95896.00;;;10.10
33267;BMP180;19638;49.080;11.896;2022-11-15T10:24:12;95891.00;;;10.10
33267;BMP180;19638;49.080;11.896;2022-11-15T10:28:16;95885.00;;;10.30
33267;BMP180;19638;49.080;11.896;2022-11-15T10:32:20;95889.00;;;10.30
33267;BMP180;19638;49.080;11.896;2022-11-15T10:36:58;95879.00;;;10.30
33267;BMP180;19638;49.080;11.896;2022-11-15T10:41:07;95865.00;;;10.50
33267;BMP180;19638;49.080;11.896;2022-11-15T10:45:24;95854.00;;;10.60
33267;BMP180;19638;49.080;11.896;2022-11-15T10:49:52;95853.00;;;10.70
33267;BMP180;19638;49.080;11.896;2022-11-15T10:53:58;95851.00;;;10.80
33267;BMP180;19638;49.080;11.896;2022-11-15T10:58:06;95845.00;;;10.90
33267;BMP180;19638;49.080;11.896;2022-11-15T11:02:29;95849.00;;;11.10
33267;BMP180;19638;49.080;11.896;2022-11-15T11:06:46;95838.00;;;11.10
33267;BMP180;19638;49.080;11.896;2022-11-15T11:10:53;95822.00;;;11.20
33267;BMP180;19638;49.080;11.896;2022-11-15T11:15:12;95810.00;;;11.30
33267;BMP180;19638;49.080;11.896;2022-11-15T11:19:46;95804.00;;;11.40
33267;BMP180;19638;49.080;11.896;2022-11-15T11:23:53;95804.00;;;11.50
33267;BMP180;19638;49.080;11.896;2022-11-15T11:32:43;95803.00;;;11.70
33267;BMP180;19638;49.080;11.896;2022-11-15T11:37:00;95805.00;;;11.80
33267;BMP180;19638;49.080;11.896;2022-11-15T11:41:16;95798.00;;;11.90
33267;BMP180;19638;49.080;11.896;2022-11-15T11:50:11;95778.00;;;11.80
33267;BMP180;19638;49.080;11.896;2022-11-15T11:54:20;95771.00;;;11.70
33267;BMP180;19638;49.080;11.896;2022-11-15T11:58:29;95762.00;;;11.60
33267;BMP180;19638;49.080;11.896;2022-11-15T12:02:39;95753.00;;;11.60
33267;BMP180;19638;49.080;11.896;2022-11-15T12:07:13;95745.00;;;11.70
33267;BMP180;19638;49.080;11.896;2022-11-15T12:11:21;95742.00;;;11.80
33267;BMP180;19638;49.080;11.896;2022-11-15T12:15:29;95741.00;;;11.90
33267;BMP180;19638;49.080;11.896;2022-11-15T12:20:02;95735.00;;;12.10
33267;BMP180;19638;49.080;11.896;2022-11-15T12:24:11;95722.00;;;12.30
33267;BMP180;19638;49.080;11.896;2022-11-15T12:28:19;95710.00;;;12.30
33267;BMP180;19638;49.080;11.896;2022-11-15T12:32:52;95714.00;;;12.30
33267;BMP180;19638;49.080;11.896;2022-11-15T12:36:56;95707.00;;;12.40
33267;BMP180;19638;49.080;11.896;2022-11-15T12:41:14;95704.00;;;12.50
33267;BMP180;19638;49.080;11.896;2022-11-15T12:45:26;95706.00;;;12.50
33267;BMP180;19638;49.080;11.896;2022-11-15T12:50:04;95700.00;;;12.60
33267;BMP180;19638;49.080;11.896;2022-11-15T12:58:47;95694.00;;;12.60
33267;BMP180;19638;49.080;11.896;2022-11-15T13:03:26;95690.00;;;12.60
33267;BMP180;19638;49.080;11.896;2022-11-15T13:08:00;95692.00;;;12.60
33267;BMP180;19638;49.080;11.896;2022-11-15T13:12:04;95704.00;;;12.70
33267;BMP180;19638;49.080;11.896;2022-11-15T13:16:10;95693.00;;;12.70
33267;BMP180;19638;49.080;11.896;2022-11-15T13:20:23;95692.00;;;12.80
33267;BMP180;19638;49.080;11.896;2022-11-15T13:24:26;95681.00;;;12.90
33267;BMP180;19638;49.080;11.896;2022-11-15T13:28:34;95681.00;;;12.90
33267;BMP180;19638;49.080;11.896;2022-11-15T13:32:40;95690.00;;;12.90
33267;BMP180;19638;49.080;11.896;2022-11-15T13:36:43;95683.00;;;12.90
33267;BMP180;19638;49.080;11.896;2022-11-15T13:41:18;95677.00;;;12.90
33267;BMP180;19638;49.080;11.896;2022-11-15T13:45:23;95681.00;;;12.90
33267;BMP180;19638;49.080;11.896;2022-11-15T13:49:58;95663.00;;;12.90
33267;BMP180;19638;49.080;11.896;2022-11-15T13:54:33;95669.00;;;12.90
33267;BMP180;19638;49.080;11.896;2022-11-15T13:58:38;95672.00;;;12.90
33267;BMP180;19638;49.080;11.896;2022-11-15T14:02:41;95667.00;;;13.00
33267;BMP180;19638;49.080;11.896;2022-11-15T14:06:52;95658.00;;;13.00
33267;BMP180;19638;49.080;11.896;2022-11-15T14:11:13;95657.00;;;13.00
33267;BMP180;19638;49.080;11.896;2022-11-15T14:15:27;95651.00;;;13.10
33267;BMP180;19638;49.080;11.896;2022-11-15T14:19:56;95644.00;;;13.10
33267;BMP180;19638;49.080;11.896;2022-11-15T14:24:16;95638.00;;;13.10
33267;BMP180;19638;49.080;11.896;2022-11-15T14:28:29;95620.00;;;13.10
33267;BMP180;19638;49.080;11.896;2022-11-15T14:32:41;95625.00;;;13.10
33267;BMP180;19638;49.080;11.896;2022-11-15T14:37:16;95610.00;;;13.00
33267;BMP180;19638;49.080;11.896;2022-11-15T14:41:24;95613.00;;;13.00
33267;BMP180;19638;49.080;11.896;2022-11-15T14:45:28;95606.00;;;12.90
33267;BMP180;19638;49.080;11.896;2022-11-15T14:50:05;95607.00;;;12.80
33267;BMP180;19638;49.080;11.896;2022-11-15T14:54:09;95594.00;;;12.70
33267;BMP180;19638;49.080;11.896;2022-11-15T14:58:13;95593.00;;;12.60
33267;BMP180;19638;49.080;11.896;2022-11-15T15:02:47;95592.00;;;12.50
33267;BMP180;19638;49.080;11.896;2022-11-15T15:06:51;95593.00;;;12.30
33267;BMP180;19638;49.080;11.896;2022-11-15T15:10:54;95590.00;;;12.00
33267;BMP180;19638;49.080;11.896;2022-11-15T15:14:58;95592.00;;;11.80
33267;BMP180;19638;49.080;11.896;2022-11-15T15:19:32;95579.00;;;11.60
33267;BMP180;19638;49.080;11.896;2022-11-15T15:23:35;95574.00;;;11.20
33267;BMP180;19638;49.080;11.896;2022-11-15T15:28:13;95564.00;;;10.80
33267;BMP180;19638;49.080;11.896;2022-11-15T15:32:17;95571.00;;;10.60
33267;BMP180;19638;49.080;11.896;2022-11-15T15:36:20;95570.00;;;10.40
33267;BMP180;19638;49.080;11.896;2022-11-15T15:45:01;95560.00;;;9.80
33267;BMP180;19638;49.080;11.896;2022-11-15T15:49:09;95554.00;;;9.50
33267;BMP180;19638;49.080;11.896;2022-11-15T15:53:13;95547.00;;;9.20
33267;BMP180;19638;49.080;11.896;2022-11-15T15:57:16;95559.00;;;9.00
33267;BMP180;19638;49.080;11.896;2022-11-15T16:01:20;95558.00;;;9.00
33267;BMP180;19638;49.080;11.896;2022-11-15T16:10:04;95561.00;;;8.70
33267;BMP180;19638;49.080;11.896;2022-11-15T16:14:16;95568.00;;;8.60
33267;BMP180;19638;49.080;11.896;2022-11-15T16:18:53;95558.00;;;8.30
33267;BMP180;19638;49.080;11.896;2022-11-15T16:22:56;95552.00;;;8.10
33267;BMP180;19638;49.080;11.896;2022-11-15T16:27:34;95555.00;;;7.90
33267;BMP180;19638;49.080;11.896;2022-11-15T16:31:39;95549.00;;;7.70
33267;BMP180;19638;49.080;11.896;2022-11-15T16:35:42;95555.00;;;7.60
33267;BMP180;19638;49.080;11.896;2022-11-15T16:44:27;95549.00;;;7.40
33267;BMP180;19638;49.080;11.896;2022-11-15T16:48:30;95554.00;;;7.30
33267;BMP180;19638;49.080;11.896;2022-11-15T16:52:36;95555.00;;;7.20
33267;BMP180;19638;49.080;11.896;2022-11-15T16:57:10;95558.00;;;7.00
33267;BMP180;19638;49.080;11.896;2022-11-15T17:01:20;95553.00;;;6.80
33267;BMP180;19638;49.080;11.896;2022-11-15T17:05:24;95549.00;;;6.70
33267;BMP180;19638;49.080;11.896;2022-11-15T17:09:28;95552.00;;;6.60
33267;BMP180;19638;49.080;11.896;2022-11-15T17:13:31;95546.00;;;6.40
33267;BMP180;19638;49.080;11.896;2022-11-15T17:17:36;95539.00;;;6.30
33267;BMP180;19638;49.080;11.896;2022-11-15T17:21:39;95527.00;;;6.20
33267;BMP180;19638;49.080;11.896;2022-11-15T17:25:43;95525.00;;;6.10
33267;BMP180;19638;49.080;11.896;2022-11-15T17:29:46;95523.00;;;6.10
33267;BMP180;19638;49.080;11.896;2022-11-15T17:33:50;95521.00;;;6.20
33267;BMP180;19638;49.080;11.896;2022-11-15T17:42:27;95519.00;;;6.20
33267;BMP180;19638;49.080;11.896;2022-11-15T17:46:30;95512.00;;;6.20
33267;BMP180;19638;49.080;11.896;2022-11-15T17:51:08;95502.00;;;6.40
33267;BMP180;19638;49.080;11.896;2022-11-15T17:55:42;95514.00;;;6.60
33267;BMP180;19638;49.080;11.896;2022-11-15T18:00:20;95499.00;;;6.60
33267;BMP180;19638;49.080;11.896;2022-11-15T18:04:56;95495.00;;;6.80
33267;BMP180;19638;49.080;11.896;2022-11-15T18:09:02;95484.00;;;6.80
33267;BMP180;19638;49.080;11.896;2022-11-15T18:13:36;95490.00;;;7.00
33267;BMP180;19638;49.080;11.896;2022-11-15T18:18:13;95496.00;;;7.00
33267;BMP180;19638;49.080;11.896;2022-11-15T18:22:51;95502.00;;;6.90
33267;BMP180;19638;49.080;11.896;2022-11-15T18:26:56;95502.00;;;6.90
33267;BMP180;19638;49.080;11.896;2022-11-15T18:31:00;95494.00;;;6.80
33267;BMP180;19638;49.080;11.896;2022-11-15T18:35:04;95505.00;;;6.80
33267;BMP180;19638;49.080;11.896;2022-11-15T18:39:42;95506.00;;;6.70
33267;BMP180;19638;49.080;11.896;2022-11-15T18:44:21;95500.00;;;6.70
33267;BMP180;19638;49.080;11.896;2022-11-15T18:48:54;95490.00;;;6.60
33267;BMP180;19638;49.080;11.896;2022-11-15T18:52:58;95480.00;;;6.50
33267;BMP180;19638;49.080;11.896;2022-11-15T18:57:02;95473.00;;;6.50
33267;BMP180;19638;49.080;11.896;2022-11-15T19:01:08;95470.00;;;6.60
33267;BMP180;19638;49.080;11.896;2022-11-15T19:05:12;95472.00;;;6.70
33267;BMP180;19638;49.080;11.896;2022-11-15T19:09:51;95463.00;;;7.00
33267;BMP180;19638;49.080;11.896;2022-11-15T19:13:57;95464.00;;;7.20
33267;BMP180;19638;49.080;11.896;2022-11-15T19:18:02;95454.00;;;7.30
33267;BMP180;19638;49.080;11.896;2022-11-15T19:22:36;95439.00;;;7.30
33267;BMP180;19638;49.080;11.896;2022-11-15T19:26:59;95439.00;;;7.20
33267;BMP180;19638;49.080;11.896;2022-11-15T19:31:03;95441.00;;;7.20
33267;BMP180;19638;49.080;11.896;2022-11-15T19:35:40;95433.00;;;7.30
33267;BMP180;19638;49.080;11.896;2022-11-15T19:40:17;95424.00;;;7.50
33267;BMP180;19638;49.080;11.896;2022-11-15T19:44:20;95437.00;;;7.70
33267;BMP180;19638;49.080;11.896;2022-11-15T19:48:23;95429.00;;;7.80
33267;BMP180;19638;49.080;11.896;2022-11-15T19:52:28;95431.00;;;7.90
33267;BMP180;19638;49.080;11.896;2022-11-15T19:56:31;95428.00;;;7.90
33267;BMP180;19638;49.080;11.896;2022-11-15T20:01:11;95429.00;;;7.90
33267;BMP180;19638;49.080;11.896;2022-11-15T20:09:50;95434.00;;;7.90
33267;BMP180;19638;49.080;11.896;2022-11-15T20:13:55;95426.00;;;7.90
33267;BMP180;19638;49.080;11.896;2022-11-15T20:18:30;95420.00;;;7.80
33267;BMP180;19638;49.080;11.896;2022-11-15T20:22:33;95408.00;;;7.80
33267;BMP180;19638;49.080;11.896;2022-11-15T20:27:12;95408.00;;;7.70
33267;BMP180;19638;49.080;11.896;2022-11-15T20:31:16;95404.00;;;7.70
33267;BMP180;19638;49.080;11.896;2022-11-15T20:35:53;95398.00;;;7.60
33267;BMP180;19638;49.080;11.896;2022-11-15T20:39:56;95392.00;;;7.50
33267;BMP180;19638;49.080;11.896;2022-11-15T20:44:04;95394.00;;;7.50
33267;BMP180;19638;49.080;11.896;2022-11-15T20:48:08;95397.00;;;7.60
33267;BMP180;19638;49.080;11.896;2022-11-15T20:52:14;95393.00;;;7.60
33267;BMP180;19638;49.080;11.896;2022-11-15T20:56:19;95393.00;;;7.70
33267;BMP180;19638;49.080;11.896;2022-11-15T21:00:57;95369.00;;;7.70
33267;BMP180;19638;49.080;11.896;2022-11-15T21:05:32;95368.00;;;7.60
33267;BMP180;19638;49.080;11.896;2022-11-15T21:10:08;95374.00;;;7.50
33267;BMP180;19638;49.080;11.896;2022-11-15T21:14:44;95377.00;;;7.50
33267;BMP180;19638;49.080;11.896;2022-11-15T21:18:51;95386.00;;;7.60
33267;BMP180;19638;49.080;11.896;2022-11-15T21:22:54;95378.00;;;7.60
33267;BMP180;19638;49.080;11.896;2022-11-15T21:26:57;95370.00;;;7.60
33267;BMP180;19638;49.080;11.896;2022-11-15T21:31:00;95371.00;;;7.50
33267;BMP180;19638;49.080;11.896;2022-11-15T21:35:05;95368.00;;;7.40
33267;BMP180;19638;49.080;11.896;2022-11-15T21:39:09;95360.00;;;7.40
33267;BMP180;19638;49.080;11.896;2022-11-15T21:43:45;95354.00;;;7.30
33267;BMP180;19638;49.080;11.896;2022-11-15T21:52:27;95346.00;;;7.10
33267;BMP180;19638;49.080;11.896;2022-11-15T21:56:30;95354.00;;;7.00
33267;BMP180;19638;49.080;11.896;2022-11-15T22:00:33;95326.00;;;6.80
33267;BMP180;19638;49.080;11.896;2022-11-15T22:04:56;95321.00;;;6.80
33267;BMP180;19638;49.080;11.896;2022-11-15T22:09:34;95310.00;;;6.70
33267;BMP180;19638;49.080;11.896;2022-11-15T22:18:12;95298.00;;;6.60
33267;BMP180;19638;49.080;11.896;2022-11-15T22:22:50;95295.00;;;6.60
33267;BMP180;19638;49.080;11.896;2022-11-15T22:26:54;95283.00;;;6.50
33267;BMP180;19638;49.080;11.896;2022-11-15T22:30:59;95292.00;;;6.50
33267;BMP180;19638;49.080;11.896;2022-11-15T22:35:02;95289.00;;;6.40
33267;BMP180;19638;49.080;11.896;2022-11-15T22:39:05;95278.00;;;6.50
33267;BMP180;19638;49.080;11.896;2022-11-15T22:43:11;95281.00;;;6.50
33267;BMP180;19638;49.080;11.896;2022-11-15T22:47:14;95272.00;;;6.60
33267;BMP180;19638;49.080;11.896;2022-11-15T22:51:17;95255.00;;;6.60
33267;BMP180;19638;49.080;11.896;2022-11-15T22:55:55;95260.00;;;6.60
33267;BMP180;19638;49.080;11.896;2022-11-15T22:59:59;95255.00;;;6.60
33267;BMP180;19638;49.080;11.896;2022-11-15T23:04:34;95257.00;;;6.60
33267;BMP180;19638;49.080;11.896;2022-11-15T23:08:37;95245.00;;;6.60
33267;BMP180;19638;49.080;11.896;2022-11-15T23:12:41;95237.00;;;6.60
33267;BMP180;19638;49.080;11.896;2022-11-15T23:17:18;95236.00;;;6.60
33267;BMP180;19638;49.080;11.896;2022-11-15T23:21:23;95241.00;;;6.50
33267;BMP180;19638;49.080;11.896;2022-11-15T23:25:57;95234.00;;;6.50
33267;BMP180;19638;49.080;11.896;2022-11-15T23:30:00;95236.00;;;6.50
33267;BMP180;19638;49.080;11.896;2022-11-15T23:34:22;95231.00;;;6.50
33267;BMP180;19638;49.080;11.896;2022-11-15T23:38:57;95225.00;;;6.50
33267;BMP180;19638;49.080;11.896;2022-11-15T23:43:00;95239.00;;;6.60
33267;BMP180;19638;49.080;11.896;2022-11-15T23:47:03;95228.00;;;6.70
33267;BMP180;19638;49.080;11.896;2022-11-15T23:51:08;95230.00;;;6.70
33267;BMP180;19638;49.080;11.896;2022-11-15T23:55:42;95216.00;;;6.60
33267;BMP180;19638;49.080;11.896;2022-11-15T23:59:45;95210.00;;;6.60
